This is the latest recevied weather packets stored in our database for station/object W1CAT. If no packets are shown the sender has not sent any weather packets the latest 10 day(s).
| Time | Temp. | Humidity | Pressure | Rain* | Wind** | Luminosity | Snow |
|---|---|---|---|---|---|---|---|
| 1777563261 | 5.56° C | 73% | - | 0 mm | - | - | - |
| 1777562958 | 5.56° C | 74% | - | 0 mm | - | - | - |
| 1777562654 | 5.56° C | 72% | - | 0 mm | - | - | - |
| 1777562354 | 4.44° C | 77% | - | 0 mm | - | - | - |
| 1777562050 | 5° C | 78% | - | 0 mm | - | - | - |
| 1777561747 | 5° C | 79% | - | 0 mm | - | - | - |
| 1777561442 | 5° C | 78% | - | 0 mm | - | - | - |
| 1777561137 | 5° C | 78% | - | 0 mm | - | - | - |
| 1777560833 | 5° C | 79% | - | 0 mm | - | - | - |
| 1777560531 | 5° C | 78% | - | 0 mm | - | - | - |
| 1777560228 | 5.56° C | 78% | - | 0 mm | - | - | - |
| 1777559920 | 5.56° C | 79% | - | 0 mm | - | - | - |
| 1777559615 | 5.56° C | 79% | - | 0 mm | - | - | - |
| 1777559313 | 5° C | 80% | - | 0 mm | - | - | - |
| 1777559009 | 5° C | 82% | - | 0 mm | - | - | - |
| 1777558704 | 5° C | 84% | - | 0 mm | - | - | - |
| 1777558400 | 4.44° C | 85% | - | 0 mm | - | - | - |
| 1777558096 | 4.44° C | 86% | - | 0 mm | - | - | - |
| 1777557794 | 4.44° C | 85% | - | 0 mm | - | - | - |
| 1777557490 | 3.89° C | 88% | - | 0 mm | - | - | - |
| 1777557186 | 3.89° C | 88% | - | 0 mm | - | - | - |
| 1777556882 | 3.33° C | 89% | - | 0 mm | - | - | - |
| 1777556577 | 3.33° C | 87% | - | 0 mm | - | - | - |
| 1777556277 | 3.33° C | 89% | - | 0 mm | - | - | - |
| 1777555968 | 3.33° C | 91% | - | 0 mm | - | - | - |
* Rain latest hour (hover to see other rain measurements)
** Current wind speed in m/s (hover to see current wind gust speed)